createdAt,value
2018-12-10T00:00:18.784Z,967.40
2018-12-10T00:01:18.784Z,967.40
2018-12-10T00:02:18.772Z,967.46
2018-12-10T00:03:18.775Z,967.51
2018-12-10T00:04:18.769Z,967.51
2018-12-10T00:05:18.788Z,967.47
2018-12-10T00:06:18.756Z,967.60
2018-12-10T00:07:18.748Z,967.60
2018-12-10T00:08:18.753Z,967.59
2018-12-10T00:09:18.769Z,967.64
2018-12-10T00:10:18.732Z,967.75
2018-12-10T00:11:18.728Z,967.77
2018-12-10T00:12:18.719Z,967.74
2018-12-10T00:13:18.723Z,967.79
2018-12-10T00:14:18.739Z,967.87
2018-12-10T00:15:18.710Z,967.84
2018-12-10T00:16:18.705Z,967.85
2018-12-10T00:17:18.701Z,967.85
2018-12-10T00:18:18.691Z,967.82
2018-12-10T00:19:18.720Z,967.80
2018-12-10T00:20:18.722Z,967.81
2018-12-10T00:21:18.680Z,967.80
2018-12-10T00:22:18.672Z,967.71
2018-12-10T00:23:18.671Z,967.71
2018-12-10T00:24:18.665Z,967.76
2018-12-10T00:25:18.694Z,967.77
2018-12-10T00:26:18.652Z,967.72
2018-12-10T00:27:18.647Z,967.77
2018-12-10T00:28:18.645Z,967.73
2018-12-10T00:29:18.636Z,967.79
2018-12-10T00:30:18.660Z,967.72
2018-12-10T00:31:18.628Z,967.76
2018-12-10T00:32:18.634Z,967.68
2018-12-10T00:33:18.612Z,967.74
2018-12-10T00:34:18.639Z,967.67
2018-12-10T00:35:18.608Z,967.75
2018-12-10T00:36:18.603Z,967.79
2018-12-10T00:37:18.599Z,967.77
2018-12-10T00:38:18.591Z,967.81
2018-12-10T00:39:18.611Z,967.76
2018-12-10T00:40:18.578Z,967.78
2018-12-10T00:41:18.580Z,967.78
2018-12-10T00:42:18.577Z,967.80
2018-12-10T00:43:18.563Z,967.78
2018-12-10T00:44:18.584Z,967.76
2018-12-10T00:45:18.554Z,967.86
2018-12-10T00:46:18.548Z,967.88
2018-12-10T00:47:18.540Z,967.91
2018-12-10T00:48:18.539Z,967.96
2018-12-10T00:49:18.562Z,967.96
2018-12-10T00:50:18.526Z,967.96
2018-12-10T00:51:18.523Z,968.02
2018-12-10T00:52:18.518Z,968.04
2018-12-10T00:53:18.512Z,968.06
2018-12-10T00:54:18.534Z,968.08
2018-12-10T00:55:18.499Z,968.07
2018-12-10T00:56:18.494Z,968.06
2018-12-10T00:57:18.490Z,968.08
2018-12-10T00:58:18.482Z,968.11
2018-12-10T00:59:18.509Z,968.17
2018-12-10T01:00:18.474Z,968.16
2018-12-10T01:01:18.472Z,968.17
2018-12-10T01:02:18.463Z,968.20
2018-12-10T01:03:18.458Z,968.24
2018-12-10T01:04:18.478Z,968.15
2018-12-10T01:05:18.448Z,968.20
2018-12-10T01:06:18.446Z,968.25
2018-12-10T01:07:18.435Z,968.30
2018-12-10T01:08:18.434Z,968.20
2018-12-10T01:09:18.445Z,968.28
2018-12-10T01:10:18.421Z,968.21
2018-12-10T01:11:18.415Z,968.22
2018-12-10T01:12:18.410Z,968.17
2018-12-10T01:13:18.404Z,968.16
2018-12-10T01:14:18.431Z,968.22
2018-12-10T01:15:18.397Z,968.24
2018-12-10T01:16:18.389Z,968.29
2018-12-10T01:17:18.381Z,968.38
2018-12-10T01:18:18.380Z,968.35
2018-12-10T01:19:18.404Z,968.35
2018-12-10T01:20:18.361Z,968.41
2018-12-10T01:21:18.367Z,968.40
2018-12-10T01:22:18.361Z,968.36
2018-12-10T01:23:18.350Z,968.39
2018-12-10T01:24:18.383Z,968.47
2018-12-10T01:25:18.342Z,968.45
2018-12-10T01:26:18.335Z,968.50
2018-12-10T01:27:18.334Z,968.47
2018-12-10T01:28:18.330Z,968.45
2018-12-10T01:29:18.347Z,968.48
2018-12-10T01:30:18.319Z,968.52
2018-12-10T01:31:18.307Z,968.50
2018-12-10T01:32:18.305Z,968.53
2018-12-10T01:33:18.322Z,968.54
2018-12-10T01:34:18.293Z,968.51
2018-12-10T01:35:18.285Z,968.54
2018-12-10T01:36:18.286Z,968.59
2018-12-10T01:37:18.273Z,968.56
2018-12-10T01:38:18.301Z,968.59
2018-12-10T01:39:18.266Z,968.60
2018-12-10T01:40:18.257Z,968.70
2018-12-10T01:41:18.261Z,968.70
2018-12-10T01:42:18.250Z,968.77
2018-12-10T01:43:18.278Z,968.73
2018-12-10T01:44:18.237Z,968.72
2018-12-10T01:45:18.236Z,968.63
2018-12-10T01:46:18.226Z,968.77
2018-12-10T01:47:18.220Z,968.69
2018-12-10T01:48:18.244Z,968.76
2018-12-10T01:49:18.209Z,968.75
2018-12-10T01:50:18.202Z,968.76
2018-12-10T01:51:18.199Z,968.83
2018-12-10T01:52:18.196Z,968.82
2018-12-10T01:53:18.218Z,968.83
2018-12-10T01:54:18.209Z,968.83
2018-12-10T01:55:18.173Z,968.82
2018-12-10T01:56:18.172Z,968.85
2018-12-10T01:57:18.166Z,968.88
2018-12-10T01:58:18.157Z,968.82
2018-12-10T01:59:18.181Z,968.82
2018-12-10T02:00:18.145Z,968.88
2018-12-10T02:01:18.140Z,968.86
2018-12-10T02:02:18.142Z,968.90
2018-12-10T02:03:18.130Z,968.89
2018-12-10T02:04:18.153Z,968.91
2018-12-10T02:05:18.117Z,968.93
2018-12-10T02:06:18.115Z,968.94
2018-12-10T02:07:18.109Z,968.96
2018-12-10T02:08:18.105Z,968.92
2018-12-10T02:09:18.124Z,968.88
2018-12-10T02:10:18.090Z,968.82
2018-12-10T02:11:18.085Z,968.86
2018-12-10T02:12:18.084Z,968.80
2018-12-10T02:13:18.073Z,968.84
2018-12-10T02:14:18.096Z,968.81
2018-12-10T02:15:18.060Z,968.92
2018-12-10T02:16:18.052Z,968.88
2018-12-10T02:17:18.048Z,968.93
2018-12-10T02:18:18.044Z,968.98
2018-12-10T02:19:18.068Z,968.99
2018-12-10T02:20:18.064Z,969.00
2018-12-10T02:21:18.029Z,968.92
2018-12-10T02:22:18.024Z,968.92
2018-12-10T02:23:18.017Z,968.91
2018-12-10T02:24:18.011Z,968.92
2018-12-10T02:25:18.034Z,968.96
2018-12-10T02:26:18.000Z,968.94
2018-12-10T02:27:18.000Z,968.94
2018-12-10T02:28:17.988Z,968.97
2018-12-10T02:29:17.985Z,968.98
2018-12-10T02:30:18.008Z,968.98
2018-12-10T02:31:17.970Z,968.99
2018-12-10T02:32:17.969Z,968.99
2018-12-10T02:33:17.959Z,969.00
2018-12-10T02:34:17.962Z,969.04
2018-12-10T02:35:17.975Z,969.06
2018-12-10T02:36:17.947Z,968.97
2018-12-10T02:37:17.935Z,968.99
2018-12-10T02:38:17.933Z,969.01
2018-12-10T02:39:17.931Z,969.01
2018-12-10T02:40:17.947Z,969.03
2018-12-10T02:41:17.913Z,969.03
2018-12-10T02:42:17.912Z,968.99
2018-12-10T02:43:17.905Z,969.00
2018-12-10T02:44:17.910Z,969.00
2018-12-10T02:45:17.920Z,969.03
2018-12-10T02:46:17.903Z,969.06
2018-12-10T02:47:17.890Z,969.05
2018-12-10T02:48:17.878Z,969.11
2018-12-10T02:49:17.874Z,969.10
2018-12-10T02:50:17.897Z,969.18
2018-12-10T02:51:17.860Z,969.24
2018-12-10T02:52:17.855Z,969.19
2018-12-10T02:53:17.848Z,969.23
2018-12-10T02:54:17.844Z,969.21
2018-12-10T02:55:17.873Z,969.26
2018-12-10T02:56:17.830Z,969.25
2018-12-10T02:57:17.832Z,969.32
2018-12-10T02:58:17.830Z,969.31
2018-12-10T02:59:17.815Z,969.28
2018-12-10T03:00:17.840Z,969.34
2018-12-10T03:01:17.805Z,969.33
2018-12-10T03:02:17.803Z,969.33
2018-12-10T03:03:17.810Z,969.33
2018-12-10T03:04:17.790Z,969.32
2018-12-10T03:05:17.803Z,969.32
2018-12-10T03:06:17.779Z,969.33
2018-12-10T03:07:17.770Z,969.28
2018-12-10T03:08:17.767Z,969.31
2018-12-10T03:09:17.760Z,969.33
2018-12-10T03:10:17.778Z,969.38
2018-12-10T03:11:17.750Z,969.36
2018-12-10T03:12:17.745Z,969.37
2018-12-10T03:13:17.739Z,969.36
2018-12-10T03:14:17.731Z,969.35
2018-12-10T03:15:17.762Z,969.35
2018-12-10T03:16:17.718Z,969.38
2018-12-10T03:17:17.709Z,969.45
2018-12-10T03:18:17.709Z,969.42
2018-12-10T03:19:17.706Z,969.45
2018-12-10T03:20:17.721Z,969.51
2018-12-10T03:21:17.697Z,969.51
2018-12-10T03:22:17.687Z,969.49
2018-12-10T03:23:17.683Z,969.55
2018-12-10T03:24:17.675Z,969.52
2018-12-10T03:25:17.694Z,969.56
2018-12-10T03:26:17.662Z,969.58
2018-12-10T03:27:17.665Z,969.65
2018-12-10T03:28:17.654Z,969.59
2018-12-10T03:29:17.677Z,969.63
2018-12-10T03:30:17.648Z,969.65
2018-12-10T03:31:17.638Z,969.68
2018-12-10T03:32:17.630Z,969.61
2018-12-10T03:33:17.660Z,969.61
2018-12-10T03:34:17.616Z,969.60
2018-12-10T03:35:17.643Z,969.59
2018-12-10T03:36:17.610Z,969.64
2018-12-10T03:37:17.600Z,969.61
2018-12-10T03:38:17.596Z,969.59
2018-12-10T03:39:17.588Z,969.63
2018-12-10T03:40:17.612Z,969.66
2018-12-10T03:41:17.578Z,969.70
2018-12-10T03:42:17.572Z,969.73
2018-12-10T03:43:17.574Z,969.74
2018-12-10T03:44:17.560Z,969.78
2018-12-10T03:45:17.584Z,969.71
2018-12-10T03:46:17.549Z,969.74
2018-12-10T03:47:17.546Z,969.77
2018-12-10T03:48:17.539Z,969.72
2018-12-10T03:49:17.533Z,969.79
2018-12-10T03:50:17.557Z,969.81
2018-12-10T03:51:17.526Z,969.84
2018-12-10T03:52:17.515Z,969.92
2018-12-10T03:53:17.515Z,969.89
2018-12-10T03:54:17.508Z,969.96
2018-12-10T03:55:17.532Z,969.97
2018-12-10T03:56:17.495Z,970.04
2018-12-10T03:57:17.488Z,970.01
2018-12-10T03:58:17.483Z,970.08
2018-12-10T03:59:17.480Z,970.11
2018-12-10T04:00:17.501Z,970.12
2018-12-10T04:01:17.465Z,970.13
2018-12-10T04:02:17.458Z,970.16
2018-12-10T04:03:17.453Z,970.18
2018-12-10T04:04:17.464Z,970.18
2018-12-10T04:05:17.475Z,970.16
2018-12-10T04:06:17.443Z,970.23
2018-12-10T04:07:17.439Z,970.23
2018-12-10T04:08:17.429Z,970.24
2018-12-10T04:09:17.423Z,970.23
2018-12-10T04:10:17.443Z,970.27
2018-12-10T04:11:17.411Z,970.29
2018-12-10T04:12:17.410Z,970.30
2018-12-10T04:13:17.400Z,970.25
2018-12-10T04:14:17.399Z,970.36
2018-12-10T04:15:17.425Z,970.30
2018-12-10T04:16:17.389Z,970.35
2018-12-10T04:17:17.384Z,970.33
2018-12-10T04:18:17.377Z,970.33
2018-12-10T04:19:17.374Z,970.39
2018-12-10T04:20:17.392Z,970.37
2018-12-10T04:21:17.359Z,970.31
2018-12-10T04:22:17.352Z,970.21
2018-12-10T04:23:17.347Z,970.30
2018-12-10T04:24:17.345Z,970.26
2018-12-10T04:25:17.367Z,970.21
2018-12-10T04:26:17.334Z,970.24
2018-12-10T04:27:17.334Z,970.19
2018-12-10T04:28:17.326Z,970.28
2018-12-10T04:29:17.316Z,970.28
2018-12-10T04:30:17.338Z,970.31
2018-12-10T04:31:17.362Z,970.27
2018-12-10T04:32:17.298Z,970.16
2018-12-10T04:33:17.435Z,970.25
2018-12-10T04:34:17.286Z,970.28
2018-12-10T04:35:17.312Z,970.33
2018-12-10T04:36:17.278Z,970.28
2018-12-10T04:37:17.276Z,970.31
2018-12-10T04:38:17.281Z,970.33
2018-12-10T04:39:17.267Z,970.34
2018-12-10T04:40:17.278Z,970.42
2018-12-10T04:41:17.255Z,970.38
2018-12-10T04:42:17.241Z,970.40
2018-12-10T04:43:17.242Z,970.51
2018-12-10T04:44:17.234Z,970.42
2018-12-10T04:45:17.257Z,970.51
2018-12-10T04:46:17.222Z,970.48
2018-12-10T04:47:17.217Z,970.50
2018-12-10T04:48:17.236Z,970.48
2018-12-10T04:49:17.205Z,970.51
2018-12-10T04:50:17.355Z,970.51
2018-12-10T04:51:17.204Z,970.44
2018-12-10T04:52:17.192Z,970.58
2018-12-10T04:53:17.188Z,970.50
2018-12-10T04:54:17.178Z,970.62
2018-12-10T04:55:17.207Z,970.55
2018-12-10T04:56:17.183Z,970.54
2018-12-10T04:57:17.162Z,970.62
2018-12-10T04:58:17.158Z,970.56
2018-12-10T04:59:17.156Z,970.54
2018-12-10T05:00:17.180Z,970.67
2018-12-10T05:01:17.141Z,970.60
2018-12-10T05:02:17.132Z,970.67
2018-12-10T05:03:17.130Z,970.75
2018-12-10T05:04:17.123Z,970.72
2018-12-10T05:05:17.146Z,970.75
2018-12-10T05:06:17.165Z,970.70
2018-12-10T05:07:17.121Z,970.73
2018-12-10T05:08:17.106Z,970.71
2018-12-10T05:09:17.101Z,970.77
2018-12-10T05:10:17.122Z,970.80
2018-12-10T05:11:17.090Z,970.79
2018-12-10T05:12:17.083Z,970.83
2018-12-10T05:13:17.204Z,970.87
2018-12-10T05:14:17.071Z,970.85
2018-12-10T05:15:17.092Z,970.88
2018-12-10T05:16:17.061Z,970.88
2018-12-10T05:17:17.055Z,970.79
2018-12-10T05:18:17.047Z,970.88
2018-12-10T05:19:17.045Z,970.88
2018-12-10T05:20:17.069Z,970.90
2018-12-10T05:21:17.034Z,970.88
2018-12-10T05:22:17.029Z,970.94
2018-12-10T05:23:17.029Z,971.00
2018-12-10T05:24:17.017Z,970.98
2018-12-10T05:25:17.037Z,970.99
2018-12-10T05:26:17.005Z,970.99
2018-12-10T05:27:17.001Z,971.06
2018-12-10T05:28:17.004Z,971.01
2018-12-10T05:29:16.990Z,971.07
2018-12-10T05:30:17.015Z,971.11
2018-12-10T05:31:16.980Z,971.03
2018-12-10T05:32:16.983Z,971.10
2018-12-10T05:33:16.980Z,971.08
2018-12-10T05:34:16.965Z,971.08
2018-12-10T05:35:16.986Z,971.08
2018-12-10T05:36:16.954Z,971.14
2018-12-10T05:37:16.950Z,971.16
2018-12-10T05:38:16.941Z,971.12
2018-12-10T05:39:16.935Z,971.21
2018-12-10T05:40:16.967Z,971.18
2018-12-10T05:41:16.952Z,971.29
2018-12-10T05:42:16.920Z,971.28
2018-12-10T05:43:16.916Z,971.32
2018-12-10T05:44:16.911Z,971.32
2018-12-10T05:45:17.038Z,971.36
2018-12-10T05:46:16.901Z,971.38
2018-12-10T05:47:16.892Z,971.40
2018-12-10T05:48:16.888Z,971.38
2018-12-10T05:49:16.989Z,971.48
2018-12-10T05:50:16.910Z,971.42
2018-12-10T05:51:16.871Z,971.45
2018-12-10T05:52:16.874Z,971.46
2018-12-10T05:53:16.862Z,971.42
2018-12-10T05:54:16.862Z,971.37
2018-12-10T05:55:16.884Z,971.43
2018-12-10T05:56:16.852Z,971.47
2018-12-10T05:57:16.844Z,971.47
2018-12-10T05:58:17.812Z,971.49
2018-12-10T05:59:16.830Z,971.43
2018-12-10T06:00:16.852Z,971.40
2018-12-10T06:01:16.828Z,971.41
2018-12-10T06:02:16.819Z,971.48
2018-12-10T06:03:16.816Z,971.52
2018-12-10T06:04:16.805Z,971.42
2018-12-10T06:05:16.826Z,971.47
2018-12-10T06:06:16.802Z,971.46
2018-12-10T06:07:16.785Z,971.44
2018-12-10T06:08:16.789Z,971.40
2018-12-10T06:09:16.775Z,971.44
2018-12-10T06:10:16.800Z,971.44
2018-12-10T06:11:16.762Z,971.47
2018-12-10T06:12:16.763Z,971.45
2018-12-10T06:13:16.755Z,971.45
2018-12-10T06:14:16.746Z,971.47
2018-12-10T06:15:16.743Z,971.49
2018-12-10T06:16:16.860Z,971.46
2018-12-10T06:17:16.730Z,971.51
2018-12-10T06:18:16.745Z,971.46
2018-12-10T06:19:16.724Z,971.55
2018-12-10T06:20:16.762Z,971.52
2018-12-10T06:21:16.738Z,971.60
2018-12-10T06:22:16.706Z,971.61
2018-12-10T06:23:16.701Z,971.62
2018-12-10T06:24:16.699Z,971.62
2018-12-10T06:25:16.693Z,971.65
2018-12-10T06:26:16.714Z,971.72
2018-12-10T06:27:16.674Z,971.74
2018-12-10T06:28:16.680Z,971.77
2018-12-10T06:29:16.667Z,971.77
2018-12-10T06:30:16.694Z,971.77
2018-12-10T06:31:16.660Z,971.78
2018-12-10T06:32:16.679Z,971.78
2018-12-10T06:33:16.666Z,971.81
2018-12-10T06:34:16.652Z,971.80
2018-12-10T06:35:16.643Z,971.87
2018-12-10T06:36:16.666Z,971.89
2018-12-10T06:37:16.633Z,971.88
2018-12-10T06:38:16.642Z,971.89
2018-12-10T06:39:16.727Z,971.92
2018-12-10T06:40:16.642Z,971.97
2018-12-10T06:41:16.603Z,972.04
2018-12-10T06:42:16.601Z,971.98
2018-12-10T06:43:16.597Z,971.94
2018-12-10T06:44:16.583Z,971.96
2018-12-10T06:45:16.642Z,971.96
2018-12-10T06:46:16.576Z,972.00
2018-12-10T06:47:16.579Z,972.00
2018-12-10T06:48:16.565Z,972.04
2018-12-10T06:49:16.588Z,971.99
2018-12-10T06:50:16.592Z,972.05
2018-12-10T06:51:16.560Z,972.10
2018-12-10T06:52:16.550Z,972.12
2018-12-10T06:53:16.545Z,972.06
2018-12-10T06:54:16.539Z,972.09
2018-12-10T06:55:16.556Z,972.14
2018-12-10T06:56:16.627Z,972.15
2018-12-10T06:57:16.513Z,972.14
2018-12-10T06:58:19.818Z,972.13
2018-12-10T06:59:16.503Z,972.09
2018-12-10T07:00:16.528Z,972.14
2018-12-10T07:01:17.455Z,972.07
2018-12-10T07:02:17.319Z,972.07
2018-12-10T07:03:17.549Z,972.15
2018-12-10T07:04:17.477Z,972.19
2018-12-10T07:05:16.506Z,972.11
2018-12-10T07:06:16.464Z,972.10
2018-12-10T07:07:16.459Z,972.14
2018-12-10T07:08:16.456Z,972.15
2018-12-10T07:09:16.458Z,972.24
2018-12-10T07:10:16.471Z,972.27
2018-12-10T07:11:16.442Z,972.27
2018-12-10T07:12:16.434Z,972.30
2018-12-10T07:13:16.432Z,972.33
2018-12-10T07:14:16.430Z,972.30
2018-12-10T07:15:16.436Z,972.34
2018-12-10T07:16:16.411Z,972.26
2018-12-10T07:17:16.411Z,972.28
2018-12-10T07:18:16.400Z,972.33
2018-12-10T07:19:16.399Z,972.29
2018-12-10T07:20:16.414Z,972.26
2018-12-10T07:21:16.383Z,972.21
2018-12-10T07:22:16.384Z,972.19
2018-12-10T07:23:16.375Z,972.18
2018-12-10T07:24:16.399Z,972.20
2018-12-10T07:25:16.364Z,972.20
2018-12-10T07:26:16.389Z,972.21
2018-12-10T07:27:16.356Z,972.20
2018-12-10T07:28:16.346Z,972.25
2018-12-10T07:29:16.338Z,972.23
2018-12-10T07:30:16.365Z,972.21
2018-12-10T07:31:16.332Z,972.27
2018-12-10T07:32:16.322Z,972.29
2018-12-10T07:33:16.336Z,972.30
2018-12-10T07:34:16.312Z,972.28
2018-12-10T07:35:16.338Z,972.35
2018-12-10T07:36:16.303Z,972.31
2018-12-10T07:37:16.294Z,972.36
2018-12-10T07:38:16.285Z,972.39
2018-12-10T07:39:16.286Z,972.50
2018-12-10T07:40:16.306Z,972.46
2018-12-10T07:41:16.296Z,972.49
2018-12-10T07:42:16.269Z,972.56
2018-12-10T07:43:16.261Z,972.48
2018-12-10T07:44:16.261Z,972.49
2018-12-10T07:45:16.277Z,972.54
2018-12-10T07:46:16.239Z,972.60
2018-12-10T07:47:16.250Z,972.56
2018-12-10T07:48:16.234Z,972.71
2018-12-10T07:49:16.258Z,972.65
2018-12-10T07:50:16.221Z,972.69
2018-12-10T07:51:16.218Z,972.68
2018-12-10T07:52:16.212Z,972.76
2018-12-10T07:53:16.198Z,972.81
2018-12-10T07:54:16.220Z,972.78
2018-12-10T07:55:16.217Z,972.81
2018-12-10T07:56:16.193Z,972.78
2018-12-10T07:57:16.180Z,972.85
2018-12-10T07:58:16.265Z,972.85
2018-12-10T07:59:16.198Z,972.81
2018-12-10T08:00:16.165Z,972.88
2018-12-10T08:01:16.156Z,972.84
2018-12-10T08:02:16.153Z,972.88
2018-12-10T08:03:16.144Z,972.94
2018-12-10T08:04:16.165Z,972.99
2018-12-10T08:05:16.137Z,972.98
2018-12-10T08:06:16.127Z,972.94
2018-12-10T08:07:16.124Z,973.04
2018-12-10T08:08:16.125Z,972.98
2018-12-10T08:09:16.144Z,972.98
2018-12-10T08:10:16.107Z,972.97
2018-12-10T08:11:16.097Z,972.97
2018-12-10T08:12:16.101Z,972.98
2018-12-10T08:13:16.093Z,973.04
2018-12-10T08:14:16.112Z,973.01
2018-12-10T08:15:16.079Z,972.97
2018-12-10T08:16:16.101Z,972.93
2018-12-10T08:17:16.067Z,972.99
2018-12-10T08:18:16.069Z,972.98
2018-12-10T08:19:16.084Z,973.04
2018-12-10T08:20:16.051Z,973.05
2018-12-10T08:21:16.045Z,973.04
2018-12-10T08:22:16.041Z,973.11
2018-12-10T08:23:16.039Z,973.11
2018-12-10T08:24:16.060Z,973.12
2018-12-10T08:25:16.034Z,973.14
2018-12-10T08:26:16.021Z,973.13
2018-12-10T08:27:16.040Z,973.10
2018-12-10T08:28:16.011Z,973.10
2018-12-10T08:29:16.016Z,973.08
2018-12-10T08:30:16.027Z,973.12
2018-12-10T08:31:15.990Z,973.11
2018-12-10T08:32:15.985Z,973.17
2018-12-10T08:33:15.979Z,973.16
2018-12-10T08:34:15.975Z,973.13
2018-12-10T08:35:16.002Z,973.19
2018-12-10T08:36:15.967Z,973.26
2018-12-10T08:37:15.956Z,973.21
2018-12-10T08:38:15.948Z,973.28
2018-12-10T08:39:15.986Z,973.23
2018-12-10T08:40:16.013Z,973.22
2018-12-10T08:41:15.936Z,973.32
2018-12-10T08:42:15.930Z,973.30
2018-12-10T08:43:15.926Z,973.33
2018-12-10T08:44:15.919Z,973.32
2018-12-10T08:45:15.943Z,973.36
2018-12-10T08:46:15.906Z,973.35
2018-12-10T08:47:16.426Z,973.34
2018-12-10T08:48:15.897Z,973.33
2018-12-10T08:49:15.992Z,973.38
2018-12-10T08:50:15.918Z,973.38
2018-12-10T08:51:16.005Z,973.37
2018-12-10T08:52:15.879Z,973.34
2018-12-10T08:53:15.895Z,973.38
2018-12-10T08:54:15.865Z,973.34
2018-12-10T08:55:15.897Z,973.38
2018-12-10T08:56:15.852Z,973.41
2018-12-10T08:57:15.988Z,973.43
2018-12-10T08:58:15.841Z,973.33
2018-12-10T08:59:15.837Z,973.40
2018-12-10T09:00:15.857Z,973.40
2018-12-10T09:01:15.821Z,973.35
2018-12-10T09:02:15.817Z,973.41
2018-12-10T09:03:15.820Z,973.46
2018-12-10T09:04:15.806Z,973.46
2018-12-10T09:05:15.853Z,973.45
2018-12-10T09:06:15.801Z,973.46
2018-12-10T09:07:15.794Z,973.42
2018-12-10T09:08:15.789Z,973.46
2018-12-10T09:09:15.782Z,973.45
2018-12-10T09:10:15.807Z,973.45
2018-12-10T09:11:15.774Z,973.46
2018-12-10T09:12:15.768Z,973.46
2018-12-10T09:13:15.764Z,973.45
2018-12-10T09:14:15.757Z,973.44
2018-12-10T09:15:15.824Z,973.40
2018-12-10T09:16:15.783Z,973.43
2018-12-10T09:17:15.783Z,973.52
2018-12-10T09:18:15.736Z,973.56
2018-12-10T09:19:15.727Z,973.52
2018-12-10T09:20:15.756Z,973.54
2018-12-10T09:21:15.716Z,973.55
2018-12-10T09:22:15.719Z,973.50
2018-12-10T09:23:15.719Z,973.51
2018-12-10T09:24:15.703Z,973.58
2018-12-10T09:25:15.730Z,973.56
2018-12-10T09:26:15.696Z,973.51
2018-12-10T09:27:15.724Z,973.48
2018-12-10T09:28:19.446Z,973.61
2018-12-10T09:29:15.679Z,973.57
2018-12-10T09:30:15.710Z,973.53
2018-12-10T09:31:15.676Z,973.62
2018-12-10T09:32:15.703Z,973.67
2018-12-10T09:33:15.663Z,973.68
2018-12-10T09:34:15.659Z,973.74
2018-12-10T09:35:15.684Z,973.79
2018-12-10T09:36:15.644Z,973.77
2018-12-10T09:37:15.639Z,973.84
2018-12-10T09:38:15.636Z,973.84
2018-12-10T09:39:15.631Z,973.86
2018-12-10T09:40:15.654Z,973.83
2018-12-10T09:41:15.619Z,973.84
2018-12-10T09:42:15.611Z,973.91
2018-12-10T09:43:15.616Z,973.86
2018-12-10T09:44:15.603Z,973.92
2018-12-10T09:45:15.628Z,973.89
2018-12-10T09:46:15.600Z,973.89
2018-12-10T09:47:15.603Z,973.83
2018-12-10T09:48:15.606Z,973.94
2018-12-10T09:49:15.582Z,973.91
2018-12-10T09:50:15.614Z,973.93
2018-12-10T09:51:15.573Z,973.91
2018-12-10T09:52:15.570Z,973.93
2018-12-10T09:53:15.562Z,973.93
2018-12-10T09:54:15.558Z,973.95
2018-12-10T09:55:15.582Z,973.92
2018-12-10T09:56:15.546Z,973.89
2018-12-10T09:57:15.548Z,973.86
2018-12-10T09:58:15.541Z,973.84
2018-12-10T09:59:15.541Z,973.84
2018-12-10T10:00:15.567Z,973.90
2018-12-10T10:01:15.523Z,973.95
2018-12-10T10:02:15.522Z,973.93
2018-12-10T10:03:15.667Z,973.87
2018-12-10T10:04:15.524Z,973.92
2018-12-10T10:05:15.534Z,973.96
2018-12-10T10:06:15.503Z,973.97
2018-12-10T10:07:15.498Z,973.98
2018-12-10T10:08:15.494Z,973.93
2018-12-10T10:09:15.489Z,973.96
2018-12-10T10:10:15.514Z,973.91
2018-12-10T10:11:15.484Z,974.01
2018-12-10T10:12:15.474Z,974.03
2018-12-10T10:13:15.470Z,974.01
2018-12-10T10:14:15.466Z,974.05
2018-12-10T10:15:15.495Z,974.00
2018-12-10T10:16:15.455Z,974.01
2018-12-10T10:17:15.451Z,974.02
2018-12-10T10:18:15.478Z,973.96
2018-12-10T10:19:15.437Z,974.05
2018-12-10T10:20:15.441Z,973.98
2018-12-10T10:21:15.467Z,973.99
2018-12-10T10:22:15.428Z,974.04
2018-12-10T10:23:15.422Z,973.99
2018-12-10T10:24:15.417Z,973.99
2018-12-10T10:25:15.444Z,973.97
2018-12-10T10:26:15.413Z,974.04
2018-12-10T10:27:15.410Z,973.96
2018-12-10T10:28:15.405Z,974.02
2018-12-10T10:29:15.398Z,973.91
2018-12-10T10:30:15.427Z,974.11
2018-12-10T10:31:15.396Z,973.97
2018-12-10T10:32:15.392Z,973.92
2018-12-10T10:33:15.382Z,973.93
2018-12-10T10:34:15.373Z,973.87
2018-12-10T10:35:15.399Z,973.98
2018-12-10T10:36:15.364Z,973.94
2018-12-10T10:37:15.370Z,973.99
2018-12-10T10:38:15.360Z,974.02
2018-12-10T10:39:15.354Z,974.02
2018-12-10T10:40:15.386Z,973.97
2018-12-10T10:41:15.345Z,973.89
2018-12-10T10:42:15.351Z,973.92
2018-12-10T10:43:15.340Z,974.05
2018-12-10T10:44:15.379Z,974.06
2018-12-10T10:45:15.357Z,974.05
2018-12-10T10:46:15.324Z,974.02
2018-12-10T10:47:15.315Z,974.09
2018-12-10T10:48:15.313Z,974.00
2018-12-10T10:49:15.312Z,974.04
2018-12-10T10:50:15.335Z,974.02
2018-12-10T10:51:15.304Z,974.05
2018-12-10T10:52:15.299Z,974.08
2018-12-10T10:53:15.292Z,974.04
2018-12-10T10:54:15.292Z,974.03
2018-12-10T10:55:15.311Z,973.93
2018-12-10T10:56:15.279Z,974.02
2018-12-10T10:57:15.274Z,974.05
2018-12-10T10:58:15.270Z,974.03
2018-12-10T10:59:15.270Z,974.07
2018-12-10T11:00:15.297Z,974.05
2018-12-10T11:01:15.258Z,974.02
2018-12-10T11:02:15.251Z,973.98
2018-12-10T11:03:15.252Z,974.07
2018-12-10T11:04:15.244Z,974.02
2018-12-10T11:05:15.267Z,973.99
2018-12-10T11:06:15.234Z,974.00
2018-12-10T11:07:15.234Z,974.02
2018-12-10T11:08:15.257Z,974.00
2018-12-10T11:09:15.758Z,973.97
2018-12-10T11:10:15.221Z,974.00
2018-12-10T11:11:15.251Z,973.92
2018-12-10T11:12:15.210Z,974.00
2018-12-10T11:13:15.208Z,974.01
2018-12-10T11:14:15.204Z,973.97
2018-12-10T11:15:15.232Z,973.99
2018-12-10T11:16:15.267Z,974.00
2018-12-10T11:17:15.196Z,974.04
2018-12-10T11:18:15.185Z,973.99
2018-12-10T11:19:15.184Z,974.07
2018-12-10T11:20:15.183Z,974.15
2018-12-10T11:21:15.197Z,974.13
2018-12-10T11:22:15.168Z,974.17
2018-12-10T11:23:15.314Z,974.22
2018-12-10T11:24:15.162Z,974.15
2018-12-10T11:25:15.183Z,974.11
2018-12-10T11:26:15.147Z,974.04
2018-12-10T11:27:15.151Z,973.98
2018-12-10T11:28:15.143Z,973.93
2018-12-10T11:29:15.139Z,973.96
2018-12-10T11:30:15.168Z,973.90
2018-12-10T11:31:17.237Z,973.98
2018-12-10T11:32:15.131Z,973.99
2018-12-10T11:33:15.166Z,973.97
2018-12-10T11:34:15.120Z,973.90
2018-12-10T11:35:15.122Z,974.01
2018-12-10T11:36:15.141Z,973.94
2018-12-10T11:37:15.953Z,973.93
2018-12-10T11:38:15.105Z,973.89
2018-12-10T11:39:15.102Z,973.96
2018-12-10T11:40:15.100Z,973.99
2018-12-10T11:41:15.129Z,973.91
2018-12-10T11:42:15.090Z,974.01
2018-12-10T11:43:15.085Z,974.04
2018-12-10T11:44:15.081Z,974.01
2018-12-10T11:45:15.084Z,974.04
2018-12-10T11:46:15.101Z,974.03
2018-12-10T11:47:15.070Z,974.09
2018-12-10T11:48:15.065Z,974.04
2018-12-10T11:49:15.065Z,974.01
2018-12-10T11:50:15.187Z,973.98
2018-12-10T11:51:15.080Z,974.00
2018-12-10T11:52:15.053Z,973.98
2018-12-10T11:53:15.049Z,973.93
2018-12-10T11:54:15.053Z,973.99
2018-12-10T11:55:15.045Z,973.96
2018-12-10T11:56:15.062Z,973.95
2018-12-10T11:57:15.033Z,973.77
2018-12-10T11:58:15.028Z,973.95
2018-12-10T11:59:15.023Z,973.93
2018-12-10T12:00:15.024Z,973.95
2018-12-10T12:01:15.043Z,973.90
2018-12-10T12:02:15.015Z,973.94
2018-12-10T12:03:15.013Z,973.87
2018-12-10T12:04:15.004Z,973.83
2018-12-10T12:05:15.005Z,973.74
2018-12-10T12:06:15.039Z,973.80
2018-12-10T12:07:15.004Z,973.80
2018-12-10T12:08:15.005Z,973.83
2018-12-10T12:09:14.995Z,974.01
2018-12-10T12:10:14.990Z,973.97
2018-12-10T12:11:15.012Z,973.85
2018-12-10T12:12:14.979Z,973.90
2018-12-10T12:13:14.980Z,973.83
2018-12-10T12:14:14.973Z,973.82
2018-12-10T12:15:14.970Z,973.83
2018-12-10T12:16:14.997Z,973.83
2018-12-10T12:17:14.964Z,973.76
2018-12-10T12:18:14.960Z,973.76
2018-12-10T12:19:14.959Z,973.79
2018-12-10T12:20:14.952Z,973.81
2018-12-10T12:21:14.979Z,973.74
2018-12-10T12:22:14.946Z,973.81
2018-12-10T12:23:14.943Z,973.74
2018-12-10T12:24:14.935Z,973.75
2018-12-10T12:25:14.935Z,973.71
2018-12-10T12:26:14.961Z,973.64
2018-12-10T12:27:14.931Z,973.60
2018-12-10T12:28:14.922Z,973.60